sensor_id;sensor_type;location;lat;lon;timestamp;P1;durP1;ratioP1;P2;durP2;ratioP2
15317;SDS011;7759;52.528;13.346;2023-02-08T00:01:36;24.07;;;11.57;;
15317;SDS011;7759;52.528;13.346;2023-02-08T00:04:02;18.30;;;10.03;;
15317;SDS011;7759;52.528;13.346;2023-02-08T00:06:28;20.93;;;10.20;;
15317;SDS011;7759;52.528;13.346;2023-02-08T00:08:54;23.27;;;11.53;;
15317;SDS011;7759;52.528;13.346;2023-02-08T00:11:20;26.70;;;13.47;;
15317;SDS011;7759;52.528;13.346;2023-02-08T00:13:45;24.60;;;11.43;;
15317;SDS011;7759;52.528;13.346;2023-02-08T00:16:12;20.10;;;10.87;;
15317;SDS011;7759;52.528;13.346;2023-02-08T00:18:38;24.10;;;10.87;;
15317;SDS011;7759;52.528;13.346;2023-02-08T00:21:11;23.67;;;11.07;;
15317;SDS011;7759;52.528;13.346;2023-02-08T00:23:37;20.20;;;10.13;;
15317;SDS011;7759;52.528;13.346;2023-02-08T00:26:03;25.70;;;11.13;;
15317;SDS011;7759;52.528;13.346;2023-02-08T00:28:29;21.17;;;10.00;;
15317;SDS011;7759;52.528;13.346;2023-02-08T00:30:55;22.17;;;10.57;;
15317;SDS011;7759;52.528;13.346;2023-02-08T00:33:21;20.00;;;10.97;;
15317;SDS011;7759;52.528;13.346;2023-02-08T00:35:47;20.17;;;10.50;;
15317;SDS011;7759;52.528;13.346;2023-02-08T00:38:13;29.00;;;11.83;;
15317;SDS011;7759;52.528;13.346;2023-02-08T00:40:39;23.90;;;11.70;;
15317;SDS011;7759;52.528;13.346;2023-02-08T00:43:05;22.37;;;11.33;;
15317;SDS011;7759;52.528;13.346;2023-02-08T00:45:31;19.07;;;10.43;;
15317;SDS011;7759;52.528;13.346;2023-02-08T00:47:57;25.30;;;10.27;;
15317;SDS011;7759;52.528;13.346;2023-02-08T00:50:23;16.27;;;8.57;;
15317;SDS011;7759;52.528;13.346;2023-02-08T00:52:49;14.80;;;7.43;;
15317;SDS011;7759;52.528;13.346;2023-02-08T00:55:15;20.97;;;10.37;;
15317;SDS011;7759;52.528;13.346;2023-02-08T00:57:41;22.67;;;10.17;;
15317;SDS011;7759;52.528;13.346;2023-02-08T01:00:07;23.37;;;10.20;;
15317;SDS011;7759;52.528;13.346;2023-02-08T01:02:33;19.53;;;9.83;;
15317;SDS011;7759;52.528;13.346;2023-02-08T01:04:59;25.60;;;11.43;;
15317;SDS011;7759;52.528;13.346;2023-02-08T01:07:25;17.77;;;9.63;;
15317;SDS011;7759;52.528;13.346;2023-02-08T01:09:51;17.47;;;9.63;;
15317;SDS011;7759;52.528;13.346;2023-02-08T01:12:17;20.97;;;10.97;;
15317;SDS011;7759;52.528;13.346;2023-02-08T01:14:43;18.03;;;9.27;;
15317;SDS011;7759;52.528;13.346;2023-02-08T01:17:08;24.00;;;11.00;;
15317;SDS011;7759;52.528;13.346;2023-02-08T01:19:34;22.33;;;11.17;;
15317;SDS011;7759;52.528;13.346;2023-02-08T01:22:01;23.43;;;11.23;;
15317;SDS011;7759;52.528;13.346;2023-02-08T01:24:27;22.17;;;10.97;;
15317;SDS011;7759;52.528;13.346;2023-02-08T01:26:53;18.90;;;10.10;;
15317;SDS011;7759;52.528;13.346;2023-02-08T01:29:19;24.83;;;11.90;;
15317;SDS011;7759;52.528;13.346;2023-02-08T01:31:45;24.60;;;11.83;;
15317;SDS011;7759;52.528;13.346;2023-02-08T01:34:11;22.10;;;10.67;;
15317;SDS011;7759;52.528;13.346;2023-02-08T01:36:37;27.90;;;12.30;;
15317;SDS011;7759;52.528;13.346;2023-02-08T01:39:04;26.27;;;12.90;;
15317;SDS011;7759;52.528;13.346;2023-02-08T01:41:32;27.70;;;12.60;;
15317;SDS011;7759;52.528;13.346;2023-02-08T01:44:00;29.70;;;13.10;;
15317;SDS011;7759;52.528;13.346;2023-02-08T01:46:27;32.07;;;13.93;;
15317;SDS011;7759;52.528;13.346;2023-02-08T01:48:53;28.27;;;13.23;;
15317;SDS011;7759;52.528;13.346;2023-02-08T01:51:22;30.73;;;13.73;;
15317;SDS011;7759;52.528;13.346;2023-02-08T01:53:49;37.03;;;15.70;;
15317;SDS011;7759;52.528;13.346;2023-02-08T01:56:19;27.60;;;14.30;;
15317;SDS011;7759;52.528;13.346;2023-02-08T01:58:47;33.67;;;15.70;;
15317;SDS011;7759;52.528;13.346;2023-02-08T02:01:14;31.70;;;15.90;;
15317;SDS011;7759;52.528;13.346;2023-02-08T02:03:40;27.53;;;13.07;;
15317;SDS011;7759;52.528;13.346;2023-02-08T02:06:10;33.03;;;14.53;;
15317;SDS011;7759;52.528;13.346;2023-02-08T02:08:37;34.67;;;15.53;;
15317;SDS011;7759;52.528;13.346;2023-02-08T02:11:04;33.47;;;15.63;;
15317;SDS011;7759;52.528;13.346;2023-02-08T02:13:30;30.30;;;14.83;;
15317;SDS011;7759;52.528;13.346;2023-02-08T02:15:56;34.40;;;15.53;;
15317;SDS011;7759;52.528;13.346;2023-02-08T02:18:24;31.30;;;13.77;;
15317;SDS011;7759;52.528;13.346;2023-02-08T02:28:22;33.03;;;15.07;;
15317;SDS011;7759;52.528;13.346;2023-02-08T02:33:33;27.13;;;13.77;;
15317;SDS011;7759;52.528;13.346;2023-02-08T02:36:15;29.23;;;14.17;;
15317;SDS011;7759;52.528;13.346;2023-02-08T02:38:56;31.87;;;14.47;;
15317;SDS011;7759;52.528;13.346;2023-02-08T02:44:14;27.70;;;13.07;;
15317;SDS011;7759;52.528;13.346;2023-02-08T02:46:45;31.33;;;14.33;;
15317;SDS011;7759;52.528;13.346;2023-02-08T02:51:45;33.33;;;15.33;;
15317;SDS011;7759;52.528;13.346;2023-02-08T02:54:13;24.67;;;12.80;;
15317;SDS011;7759;52.528;13.346;2023-02-08T02:56:45;24.20;;;11.30;;
15317;SDS011;7759;52.528;13.346;2023-02-08T02:59:12;23.23;;;12.27;;
15317;SDS011;7759;52.528;13.346;2023-02-08T03:01:40;24.87;;;12.97;;
15317;SDS011;7759;52.528;13.346;2023-02-08T03:04:17;25.83;;;12.63;;
15317;SDS011;7759;52.528;13.346;2023-02-08T03:06:56;25.10;;;13.03;;
15317;SDS011;7759;52.528;13.346;2023-02-08T03:09:29;29.67;;;13.97;;
15317;SDS011;7759;52.528;13.346;2023-02-08T03:12:15;27.53;;;13.60;;
15317;SDS011;7759;52.528;13.346;2023-02-08T03:15:03;35.60;;;14.37;;
15317;SDS011;7759;52.528;13.346;2023-02-08T03:20:17;30.80;;;12.80;;
15317;SDS011;7759;52.528;13.346;2023-02-08T03:23:05;30.73;;;14.03;;
15317;SDS011;7759;52.528;13.346;2023-02-08T03:25:40;24.00;;;10.67;;
15317;SDS011;7759;52.528;13.346;2023-02-08T03:28:14;27.97;;;12.67;;
15317;SDS011;7759;52.528;13.346;2023-02-08T03:33:17;28.37;;;12.30;;
15317;SDS011;7759;52.528;13.346;2023-02-08T03:35:47;22.90;;;11.93;;
15317;SDS011;7759;52.528;13.346;2023-02-08T03:38:16;24.47;;;11.87;;
15317;SDS011;7759;52.528;13.346;2023-02-08T03:40:47;23.40;;;11.33;;
15317;SDS011;7759;52.528;13.346;2023-02-08T03:43:15;25.10;;;11.90;;
15317;SDS011;7759;52.528;13.346;2023-02-08T03:45:45;22.33;;;11.53;;
15317;SDS011;7759;52.528;13.346;2023-02-08T03:48:12;22.10;;;10.67;;
15317;SDS011;7759;52.528;13.346;2023-02-08T03:50:39;24.00;;;11.13;;
15317;SDS011;7759;52.528;13.346;2023-02-08T03:53:06;21.10;;;10.90;;
15317;SDS011;7759;52.528;13.346;2023-02-08T03:55:33;21.57;;;9.97;;
15317;SDS011;7759;52.528;13.346;2023-02-08T03:58:10;25.20;;;11.00;;
15317;SDS011;7759;52.528;13.346;2023-02-08T04:00:39;24.20;;;11.60;;
15317;SDS011;7759;52.528;13.346;2023-02-08T04:03:20;23.10;;;10.33;;
15317;SDS011;7759;52.528;13.346;2023-02-08T04:05:48;19.33;;;10.03;;
15317;SDS011;7759;52.528;13.346;2023-02-08T04:08:14;24.60;;;11.13;;
15317;SDS011;7759;52.528;13.346;2023-02-08T04:10:40;23.43;;;10.80;;
15317;SDS011;7759;52.528;13.346;2023-02-08T04:13:05;20.07;;;10.03;;
15317;SDS011;7759;52.528;13.346;2023-02-08T04:15:31;20.63;;;9.90;;
15317;SDS011;7759;52.528;13.346;2023-02-08T04:17:57;22.47;;;10.03;;
15317;SDS011;7759;52.528;13.346;2023-02-08T04:20:23;20.23;;;10.03;;
15317;SDS011;7759;52.528;13.346;2023-02-08T04:22:49;18.47;;;9.23;;
15317;SDS011;7759;52.528;13.346;2023-02-08T04:25:15;18.87;;;9.40;;
15317;SDS011;7759;52.528;13.346;2023-02-08T04:27:41;19.77;;;9.53;;
15317;SDS011;7759;52.528;13.346;2023-02-08T04:30:07;24.10;;;9.60;;
15317;SDS011;7759;52.528;13.346;2023-02-08T04:32:33;21.43;;;10.57;;
15317;SDS011;7759;52.528;13.346;2023-02-08T04:34:59;22.60;;;9.67;;
15317;SDS011;7759;52.528;13.346;2023-02-08T04:37:25;22.40;;;10.27;;
15317;SDS011;7759;52.528;13.346;2023-02-08T04:39:51;23.43;;;10.77;;
15317;SDS011;7759;52.528;13.346;2023-02-08T04:42:17;20.13;;;9.87;;
15317;SDS011;7759;52.528;13.346;2023-02-08T04:44:43;20.27;;;10.03;;
15317;SDS011;7759;52.528;13.346;2023-02-08T04:47:09;21.60;;;9.30;;
15317;SDS011;7759;52.528;13.346;2023-02-08T04:49:34;22.63;;;10.20;;
15317;SDS011;7759;52.528;13.346;2023-02-08T04:52:00;21.70;;;10.17;;
15317;SDS011;7759;52.528;13.346;2023-02-08T04:54:26;24.57;;;9.97;;
15317;SDS011;7759;52.528;13.346;2023-02-08T04:56:52;19.70;;;10.20;;
15317;SDS011;7759;52.528;13.346;2023-02-08T04:59:18;19.43;;;9.23;;
15317;SDS011;7759;52.528;13.346;2023-02-08T05:01:44;21.23;;;9.37;;
15317;SDS011;7759;52.528;13.346;2023-02-08T05:04:10;21.87;;;9.27;;
15317;SDS011;7759;52.528;13.346;2023-02-08T05:06:36;26.53;;;10.57;;
15317;SDS011;7759;52.528;13.346;2023-02-08T05:09:02;19.63;;;8.90;;
15317;SDS011;7759;52.528;13.346;2023-02-08T05:11:28;20.23;;;9.23;;
15317;SDS011;7759;52.528;13.346;2023-02-08T05:13:54;22.17;;;9.87;;
15317;SDS011;7759;52.528;13.346;2023-02-08T05:16:20;15.30;;;8.63;;
15317;SDS011;7759;52.528;13.346;2023-02-08T05:18:46;20.90;;;9.43;;
15317;SDS011;7759;52.528;13.346;2023-02-08T05:21:11;19.93;;;9.07;;
15317;SDS011;7759;52.528;13.346;2023-02-08T05:23:37;18.53;;;8.30;;
15317;SDS011;7759;52.528;13.346;2023-02-08T05:26:07;27.53;;;10.60;;
15317;SDS011;7759;52.528;13.346;2023-02-08T05:28:34;17.90;;;9.00;;
15317;SDS011;7759;52.528;13.346;2023-02-08T05:31:07;17.30;;;8.50;;
15317;SDS011;7759;52.528;13.346;2023-02-08T05:33:32;17.33;;;8.93;;
15317;SDS011;7759;52.528;13.346;2023-02-08T05:35:58;22.10;;;9.87;;
15317;SDS011;7759;52.528;13.346;2023-02-08T05:38:24;22.70;;;9.47;;
15317;SDS011;7759;52.528;13.346;2023-02-08T05:40:50;18.57;;;9.67;;
15317;SDS011;7759;52.528;13.346;2023-02-08T05:43:16;22.97;;;10.30;;
15317;SDS011;7759;52.528;13.346;2023-02-08T05:45:42;19.60;;;9.63;;
15317;SDS011;7759;52.528;13.346;2023-02-08T05:48:08;16.40;;;8.47;;
15317;SDS011;7759;52.528;13.346;2023-02-08T05:50:33;17.93;;;9.60;;
15317;SDS011;7759;52.528;13.346;2023-02-08T05:52:59;22.43;;;9.87;;
15317;SDS011;7759;52.528;13.346;2023-02-08T05:55:25;19.37;;;9.10;;
15317;SDS011;7759;52.528;13.346;2023-02-08T05:57:52;25.47;;;11.90;;
15317;SDS011;7759;52.528;13.346;2023-02-08T06:00:18;18.73;;;9.43;;
15317;SDS011;7759;52.528;13.346;2023-02-08T06:02:44;23.77;;;11.03;;
15317;SDS011;7759;52.528;13.346;2023-02-08T06:05:10;23.47;;;10.07;;
15317;SDS011;7759;52.528;13.346;2023-02-08T06:07:36;21.00;;;10.20;;
15317;SDS011;7759;52.528;13.346;2023-02-08T06:10:02;18.77;;;9.63;;
15317;SDS011;7759;52.528;13.346;2023-02-08T06:12:28;23.07;;;10.43;;
15317;SDS011;7759;52.528;13.346;2023-02-08T06:14:54;22.67;;;10.47;;
15317;SDS011;7759;52.528;13.346;2023-02-08T06:17:20;29.00;;;11.07;;
15317;SDS011;7759;52.528;13.346;2023-02-08T06:19:46;18.97;;;9.27;;
15317;SDS011;7759;52.528;13.346;2023-02-08T06:22:11;19.50;;;9.77;;
15317;SDS011;7759;52.528;13.346;2023-02-08T06:24:37;26.03;;;10.60;;
15317;SDS011;7759;52.528;13.346;2023-02-08T06:27:03;24.50;;;10.90;;
15317;SDS011;7759;52.528;13.346;2023-02-08T06:29:30;21.90;;;10.70;;
15317;SDS011;7759;52.528;13.346;2023-02-08T06:31:56;23.17;;;10.63;;
15317;SDS011;7759;52.528;13.346;2023-02-08T06:34:21;22.17;;;10.90;;
15317;SDS011;7759;52.528;13.346;2023-02-08T06:36:47;26.90;;;11.07;;
15317;SDS011;7759;52.528;13.346;2023-02-08T06:39:13;28.77;;;11.07;;
15317;SDS011;7759;52.528;13.346;2023-02-08T06:41:39;24.53;;;10.57;;
15317;SDS011;7759;52.528;13.346;2023-02-08T06:44:05;21.73;;;9.87;;
15317;SDS011;7759;52.528;13.346;2023-02-08T06:46:31;21.10;;;10.70;;
15317;SDS011;7759;52.528;13.346;2023-02-08T06:48:57;26.17;;;11.33;;
15317;SDS011;7759;52.528;13.346;2023-02-08T06:51:24;29.83;;;12.07;;
15317;SDS011;7759;52.528;13.346;2023-02-08T06:53:50;32.67;;;12.30;;
15317;SDS011;7759;52.528;13.346;2023-02-08T06:56:16;23.73;;;11.67;;
15317;SDS011;7759;52.528;13.346;2023-02-08T06:58:42;32.17;;;11.77;;
15317;SDS011;7759;52.528;13.346;2023-02-08T07:01:11;29.80;;;11.50;;
15317;SDS011;7759;52.528;13.346;2023-02-08T07:03:37;27.67;;;11.40;;
15317;SDS011;7759;52.528;13.346;2023-02-08T07:06:03;28.47;;;13.47;;
15317;SDS011;7759;52.528;13.346;2023-02-08T07:08:29;24.37;;;9.87;;
15317;SDS011;7759;52.528;13.346;2023-02-08T07:10:55;29.40;;;13.03;;
15317;SDS011;7759;52.528;13.346;2023-02-08T07:13:21;21.77;;;11.10;;
15317;SDS011;7759;52.528;13.346;2023-02-08T07:15:47;24.80;;;11.33;;
15317;SDS011;7759;52.528;13.346;2023-02-08T07:18:13;18.87;;;8.53;;
15317;SDS011;7759;52.528;13.346;2023-02-08T07:20:39;22.70;;;11.50;;
15317;SDS011;7759;52.528;13.346;2023-02-08T07:23:05;24.60;;;12.00;;
15317;SDS011;7759;52.528;13.346;2023-02-08T07:25:30;27.20;;;12.27;;
15317;SDS011;7759;52.528;13.346;2023-02-08T07:27:56;22.47;;;10.20;;
15317;SDS011;7759;52.528;13.346;2023-02-08T07:30:22;25.50;;;11.03;;
15317;SDS011;7759;52.528;13.346;2023-02-08T07:32:48;18.37;;;9.67;;
15317;SDS011;7759;52.528;13.346;2023-02-08T07:35:14;21.77;;;10.30;;
15317;SDS011;7759;52.528;13.346;2023-02-08T07:37:40;27.67;;;10.63;;
15317;SDS011;7759;52.528;13.346;2023-02-08T07:40:06;22.80;;;10.97;;
15317;SDS011;7759;52.528;13.346;2023-02-08T07:42:32;24.67;;;11.20;;
15317;SDS011;7759;52.528;13.346;2023-02-08T07:44:58;27.00;;;12.37;;
15317;SDS011;7759;52.528;13.346;2023-02-08T07:47:24;26.67;;;11.17;;
15317;SDS011;7759;52.528;13.346;2023-02-08T07:49:50;20.63;;;9.87;;
15317;SDS011;7759;52.528;13.346;2023-02-08T07:52:15;30.13;;;11.17;;
15317;SDS011;7759;52.528;13.346;2023-02-08T07:54:41;25.90;;;11.93;;
15317;SDS011;7759;52.528;13.346;2023-02-08T07:57:07;22.90;;;10.73;;
15317;SDS011;7759;52.528;13.346;2023-02-08T07:59:33;26.33;;;11.50;;
15317;SDS011;7759;52.528;13.346;2023-02-08T08:01:59;24.83;;;10.50;;
15317;SDS011;7759;52.528;13.346;2023-02-08T08:04:25;31.43;;;11.83;;
15317;SDS011;7759;52.528;13.346;2023-02-08T08:06:51;25.87;;;10.07;;
15317;SDS011;7759;52.528;13.346;2023-02-08T08:09:17;24.63;;;11.17;;
15317;SDS011;7759;52.528;13.346;2023-02-08T08:11:44;20.93;;;10.37;;
15317;SDS011;7759;52.528;13.346;2023-02-08T08:14:10;27.87;;;11.13;;
15317;SDS011;7759;52.528;13.346;2023-02-08T08:16:36;26.33;;;10.63;;
15317;SDS011;7759;52.528;13.346;2023-02-08T08:19:02;20.63;;;10.37;;
15317;SDS011;7759;52.528;13.346;2023-02-08T08:21:28;23.83;;;10.23;;
15317;SDS011;7759;52.528;13.346;2023-02-08T08:23:53;24.03;;;10.47;;
15317;SDS011;7759;52.528;13.346;2023-02-08T08:26:20;26.50;;;11.67;;
15317;SDS011;7759;52.528;13.346;2023-02-08T08:28:46;25.27;;;10.90;;
15317;SDS011;7759;52.528;13.346;2023-02-08T08:31:14;31.40;;;11.70;;
15317;SDS011;7759;52.528;13.346;2023-02-08T08:33:40;25.53;;;10.77;;
15317;SDS011;7759;52.528;13.346;2023-02-08T08:36:06;26.57;;;11.03;;
15317;SDS011;7759;52.528;13.346;2023-02-08T08:38:32;25.27;;;11.47;;
15317;SDS011;7759;52.528;13.346;2023-02-08T08:40:58;25.43;;;11.50;;
15317;SDS011;7759;52.528;13.346;2023-02-08T08:43:24;23.53;;;11.43;;
15317;SDS011;7759;52.528;13.346;2023-02-08T08:45:50;23.17;;;12.10;;
15317;SDS011;7759;52.528;13.346;2023-02-08T08:48:16;29.97;;;11.67;;
15317;SDS011;7759;52.528;13.346;2023-02-08T08:50:42;25.77;;;11.77;;
15317;SDS011;7759;52.528;13.346;2023-02-08T08:53:08;28.83;;;11.60;;
15317;SDS011;7759;52.528;13.346;2023-02-08T08:55:34;30.83;;;13.60;;
15317;SDS011;7759;52.528;13.346;2023-02-08T08:58:00;27.03;;;12.90;;
15317;SDS011;7759;52.528;13.346;2023-02-08T09:00:26;25.07;;;11.27;;
15317;SDS011;7759;52.528;13.346;2023-02-08T09:02:52;31.63;;;13.20;;
15317;SDS011;7759;52.528;13.346;2023-02-08T09:05:18;27.57;;;12.07;;
15317;SDS011;7759;52.528;13.346;2023-02-08T09:07:44;32.47;;;13.87;;
15317;SDS011;7759;52.528;13.346;2023-02-08T09:10:09;33.80;;;13.03;;
15317;SDS011;7759;52.528;13.346;2023-02-08T09:12:35;29.47;;;13.80;;
15317;SDS011;7759;52.528;13.346;2023-02-08T09:15:02;28.63;;;12.70;;
15317;SDS011;7759;52.528;13.346;2023-02-08T09:17:28;30.13;;;13.60;;
15317;SDS011;7759;52.528;13.346;2023-02-08T09:19:54;28.73;;;12.47;;
15317;SDS011;7759;52.528;13.346;2023-02-08T09:22:20;32.93;;;14.37;;
15317;SDS011;7759;52.528;13.346;2023-02-08T09:24:45;28.37;;;12.70;;
15317;SDS011;7759;52.528;13.346;2023-02-08T09:27:11;24.33;;;11.77;;
15317;SDS011;7759;52.528;13.346;2023-02-08T09:29:39;21.97;;;10.87;;
15317;SDS011;7759;52.528;13.346;2023-02-08T09:32:05;24.63;;;11.93;;
15317;SDS011;7759;52.528;13.346;2023-02-08T09:34:31;29.43;;;12.93;;
15317;SDS011;7759;52.528;13.346;2023-02-08T09:36:57;25.30;;;11.57;;
15317;SDS011;7759;52.528;13.346;2023-02-08T09:39:23;31.83;;;12.33;;
15317;SDS011;7759;52.528;13.346;2023-02-08T09:44:30;33.17;;;12.97;;
15317;SDS011;7759;52.528;13.346;2023-02-08T09:49:26;29.63;;;12.73;;
15317;SDS011;7759;52.528;13.346;2023-02-08T09:51:57;28.80;;;12.60;;
15317;SDS011;7759;52.528;13.346;2023-02-08T09:54:31;33.73;;;14.77;;
15317;SDS011;7759;52.528;13.346;2023-02-08T09:56:59;28.47;;;13.03;;
15317;SDS011;7759;52.528;13.346;2023-02-08T09:59:25;57.93;;;22.57;;
15317;SDS011;7759;52.528;13.346;2023-02-08T10:01:58;26.97;;;11.17;;
15317;SDS011;7759;52.528;13.346;2023-02-08T10:04:37;28.63;;;12.93;;
15317;SDS011;7759;52.528;13.346;2023-02-08T10:07:05;24.93;;;11.63;;
15317;SDS011;7759;52.528;13.346;2023-02-08T10:09:31;31.27;;;13.60;;
15317;SDS011;7759;52.528;13.346;2023-02-08T10:16:59;30.17;;;13.03;;
15317;SDS011;7759;52.528;13.346;2023-02-08T10:19:39;28.17;;;12.50;;
15317;SDS011;7759;52.528;13.346;2023-02-08T10:22:14;31.63;;;12.70;;
15317;SDS011;7759;52.528;13.346;2023-02-08T10:25:02;26.33;;;12.57;;
15317;SDS011;7759;52.528;13.346;2023-02-08T10:32:49;23.50;;;11.43;;
15317;SDS011;7759;52.528;13.346;2023-02-08T10:35:23;29.40;;;14.10;;
15317;SDS011;7759;52.528;13.346;2023-02-08T10:37:49;32.13;;;13.97;;
15317;SDS011;7759;52.528;13.346;2023-02-08T10:40:23;30.37;;;12.43;;
15317;SDS011;7759;52.528;13.346;2023-02-08T10:42:54;24.50;;;10.30;;
15317;SDS011;7759;52.528;13.346;2023-02-08T10:45:24;22.63;;;11.67;;
15317;SDS011;7759;52.528;13.346;2023-02-08T10:47:51;31.07;;;14.47;;
15317;SDS011;7759;52.528;13.346;2023-02-08T10:52:54;23.83;;;13.23;;
15317;SDS011;7759;52.528;13.346;2023-02-08T10:55:20;33.50;;;15.30;;
15317;SDS011;7759;52.528;13.346;2023-02-08T10:57:47;28.40;;;10.90;;
15317;SDS011;7759;52.528;13.346;2023-02-08T11:00:21;34.43;;;13.90;;
15317;SDS011;7759;52.528;13.346;2023-02-08T11:02:50;25.17;;;11.47;;
15317;SDS011;7759;52.528;13.346;2023-02-08T11:05:18;30.50;;;12.60;;
15317;SDS011;7759;52.528;13.346;2023-02-08T11:07:44;22.83;;;11.13;;
15317;SDS011;7759;52.528;13.346;2023-02-08T11:10:28;27.20;;;13.07;;
15317;SDS011;7759;52.528;13.346;2023-02-08T11:12:55;27.67;;;13.30;;
15317;SDS011;7759;52.528;13.346;2023-02-08T11:15:23;24.03;;;12.60;;
15317;SDS011;7759;52.528;13.346;2023-02-08T11:17:57;33.80;;;15.37;;
15317;SDS011;7759;52.528;13.346;2023-02-08T11:20:25;29.53;;;13.80;;
15317;SDS011;7759;52.528;13.346;2023-02-08T11:22:53;30.40;;;11.97;;
15317;SDS011;7759;52.528;13.346;2023-02-08T11:25:33;33.60;;;14.53;;
15317;SDS011;7759;52.528;13.346;2023-02-08T11:27:59;31.07;;;13.57;;
15317;SDS011;7759;52.528;13.346;2023-02-08T11:30:25;31.77;;;14.60;;
15317;SDS011;7759;52.528;13.346;2023-02-08T11:35:36;34.70;;;14.77;;
15317;SDS011;7759;52.528;13.346;2023-02-08T11:38:02;28.77;;;13.63;;
15317;SDS011;7759;52.528;13.346;2023-02-08T11:40:33;31.63;;;14.07;;
15317;SDS011;7759;52.528;13.346;2023-02-08T11:42:59;25.33;;;12.17;;
15317;SDS011;7759;52.528;13.346;2023-02-08T11:45:27;27.33;;;12.67;;
15317;SDS011;7759;52.528;13.346;2023-02-08T11:47:53;30.20;;;13.27;;
15317;SDS011;7759;52.528;13.346;2023-02-08T11:50:23;34.60;;;14.77;;
15317;SDS011;7759;52.528;13.346;2023-02-08T11:52:57;27.73;;;12.53;;
15317;SDS011;7759;52.528;13.346;2023-02-08T11:55:24;30.97;;;14.67;;
15317;SDS011;7759;52.528;13.346;2023-02-08T11:57:51;29.03;;;14.03;;
15317;SDS011;7759;52.528;13.346;2023-02-08T12:00:28;31.90;;;12.47;;
15317;SDS011;7759;52.528;13.346;2023-02-08T12:02:57;31.13;;;13.60;;
15317;SDS011;7759;52.528;13.346;2023-02-08T12:05:27;28.50;;;13.73;;
15317;SDS011;7759;52.528;13.346;2023-02-08T12:10:33;24.90;;;12.63;;
15317;SDS011;7759;52.528;13.346;2023-02-08T12:13:16;26.87;;;13.40;;
15317;SDS011;7759;52.528;13.346;2023-02-08T12:20:45;27.40;;;13.03;;
15317;SDS011;7759;52.528;13.346;2023-02-08T12:23:23;32.33;;;13.70;;
15317;SDS011;7759;52.528;13.346;2023-02-08T12:31:05;26.67;;;12.90;;
15317;SDS011;7759;52.528;13.346;2023-02-08T12:33:39;28.83;;;12.97;;
15317;SDS011;7759;52.528;13.346;2023-02-08T12:41:31;32.10;;;13.67;;
15317;SDS011;7759;52.528;13.346;2023-02-08T12:47:13;28.50;;;14.80;;
15317;SDS011;7759;52.528;13.346;2023-02-08T12:52:11;34.60;;;15.03;;
15317;SDS011;7759;52.528;13.346;2023-02-08T12:54:42;30.13;;;12.63;;
15317;SDS011;7759;52.528;13.346;2023-02-08T12:57:10;30.13;;;12.97;;
15317;SDS011;7759;52.528;13.346;2023-02-08T12:59:39;30.40;;;13.03;;
15317;SDS011;7759;52.528;13.346;2023-02-08T13:02:10;24.03;;;12.40;;
15317;SDS011;7759;52.528;13.346;2023-02-08T13:04:39;30.43;;;14.13;;
15317;SDS011;7759;52.528;13.346;2023-02-08T13:07:40;27.63;;;13.27;;
15317;SDS011;7759;52.528;13.346;2023-02-08T13:12:28;22.67;;;11.40;;
15317;SDS011;7759;52.528;13.346;2023-02-08T13:15:38;31.10;;;13.23;;
15317;SDS011;7759;52.528;13.346;2023-02-08T13:17:49;29.30;;;13.60;;
15317;SDS011;7759;52.528;13.346;2023-02-08T13:20:19;23.63;;;12.40;;
15317;SDS011;7759;52.528;13.346;2023-02-08T13:22:46;26.30;;;12.23;;
15317;SDS011;7759;52.528;13.346;2023-02-08T13:25:14;25.43;;;12.57;;
15317;SDS011;7759;52.528;13.346;2023-02-08T13:27:41;36.37;;;13.40;;
15317;SDS011;7759;52.528;13.346;2023-02-08T13:30:14;23.07;;;11.83;;
15317;SDS011;7759;52.528;13.346;2023-02-08T13:32:41;32.67;;;13.73;;
15317;SDS011;7759;52.528;13.346;2023-02-08T13:35:13;28.97;;;12.20;;
15317;SDS011;7759;52.528;13.346;2023-02-08T13:37:40;28.47;;;13.37;;
15317;SDS011;7759;52.528;13.346;2023-02-08T13:40:20;23.03;;;12.10;;
15317;SDS011;7759;52.528;13.346;2023-02-08T13:43:02;29.27;;;11.67;;
15317;SDS011;7759;52.528;13.346;2023-02-08T13:45:39;24.83;;;12.17;;
15317;SDS011;7759;52.528;13.346;2023-02-08T13:48:07;29.53;;;13.87;;
15317;SDS011;7759;52.528;13.346;2023-02-08T13:50:40;33.83;;;14.10;;
15317;SDS011;7759;52.528;13.346;2023-02-08T13:53:06;28.87;;;12.10;;
15317;SDS011;7759;52.528;13.346;2023-02-08T13:55:53;24.60;;;12.40;;
15317;SDS011;7759;52.528;13.346;2023-02-08T13:58:27;24.33;;;11.80;;
15317;SDS011;7759;52.528;13.346;2023-02-08T14:03:30;30.10;;;14.10;;
15317;SDS011;7759;52.528;13.346;2023-02-08T14:05:57;22.77;;;11.33;;
15317;SDS011;7759;52.528;13.346;2023-02-08T14:08:27;24.07;;;11.67;;
15317;SDS011;7759;52.528;13.346;2023-02-08T14:13:44;22.13;;;9.73;;
15317;SDS011;7759;52.528;13.346;2023-02-08T14:16:21;24.33;;;11.60;;
15317;SDS011;7759;52.528;13.346;2023-02-08T14:19:01;24.90;;;12.27;;
15317;SDS011;7759;52.528;13.346;2023-02-08T14:21:32;28.07;;;12.53;;
15317;SDS011;7759;52.528;13.346;2023-02-08T14:24:00;23.50;;;11.83;;
15317;SDS011;7759;52.528;13.346;2023-02-08T14:26:27;27.83;;;13.73;;
15317;SDS011;7759;52.528;13.346;2023-02-08T14:28:54;30.00;;;13.83;;
15317;SDS011;7759;52.528;13.346;2023-02-08T14:31:21;27.13;;;11.97;;
15317;SDS011;7759;52.528;13.346;2023-02-08T14:33:59;24.57;;;11.77;;
15317;SDS011;7759;52.528;13.346;2023-02-08T14:36:29;20.63;;;10.53;;
15317;SDS011;7759;52.528;13.346;2023-02-08T14:41:45;27.47;;;11.00;;
15317;SDS011;7759;52.528;13.346;2023-02-08T14:46:55;30.83;;;12.60;;
15317;SDS011;7759;52.528;13.346;2023-02-08T14:49:21;19.90;;;9.00;;
15317;SDS011;7759;52.528;13.346;2023-02-08T14:51:55;31.73;;;13.63;;
15317;SDS011;7759;52.528;13.346;2023-02-08T14:54:33;31.87;;;13.23;;
15317;SDS011;7759;52.528;13.346;2023-02-08T14:57:03;23.33;;;10.83;;
15317;SDS011;7759;52.528;13.346;2023-02-08T14:59:29;32.90;;;12.03;;
15317;SDS011;7759;52.528;13.346;2023-02-08T15:01:56;30.30;;;13.27;;
15317;SDS011;7759;52.528;13.346;2023-02-08T15:04:24;22.13;;;9.67;;
15317;SDS011;7759;52.528;13.346;2023-02-08T15:09:36;22.63;;;11.93;;
15317;SDS011;7759;52.528;13.346;2023-02-08T15:12:05;21.43;;;10.50;;
15317;SDS011;7759;52.528;13.346;2023-02-08T15:14:32;26.13;;;11.13;;
15317;SDS011;7759;52.528;13.346;2023-02-08T15:16:59;26.57;;;12.53;;
15317;SDS011;7759;52.528;13.346;2023-02-08T15:19:26;21.47;;;10.40;;
15317;SDS011;7759;52.528;13.346;2023-02-08T15:21:53;24.13;;;9.83;;
15317;SDS011;7759;52.528;13.346;2023-02-08T15:24:20;26.77;;;12.43;;
15317;SDS011;7759;52.528;13.346;2023-02-08T15:26:51;27.90;;;12.37;;
15317;SDS011;7759;52.528;13.346;2023-02-08T15:29:22;22.50;;;10.33;;
15317;SDS011;7759;52.528;13.346;2023-02-08T15:31:48;25.83;;;11.33;;
15317;SDS011;7759;52.528;13.346;2023-02-08T15:34:15;20.03;;;10.23;;
15317;SDS011;7759;52.528;13.346;2023-02-08T15:36:44;24.00;;;11.20;;
15317;SDS011;7759;52.528;13.346;2023-02-08T15:39:24;24.07;;;11.13;;
15317;SDS011;7759;52.528;13.346;2023-02-08T15:41:54;26.93;;;11.23;;
15317;SDS011;7759;52.528;13.346;2023-02-08T15:44:22;26.17;;;11.33;;
15317;SDS011;7759;52.528;13.346;2023-02-08T15:46:49;27.30;;;10.80;;
15317;SDS011;7759;52.528;13.346;2023-02-08T15:49:25;20.50;;;10.57;;
15317;SDS011;7759;52.528;13.346;2023-02-08T15:51:53;22.03;;;10.17;;